createdAt,value
2023-09-04T00:02:08.868Z,3.67
2023-09-04T00:04:36.799Z,4.10
2023-09-04T00:07:05.007Z,5.27
2023-09-04T00:09:32.953Z,3.23
2023-09-04T00:12:00.871Z,5.83
2023-09-04T00:14:28.777Z,4.33
2023-09-04T00:16:58.079Z,4.70
2023-09-04T00:19:25.980Z,4.10
2023-09-04T00:21:53.857Z,4.93
2023-09-04T00:24:23.373Z,4.10
2023-09-04T00:26:51.236Z,4.90
2023-09-04T00:29:19.181Z,4.60
2023-09-04T00:31:47.114Z,4.67
2023-09-04T00:34:16.380Z,4.37
2023-09-04T00:36:44.225Z,4.13
2023-09-04T00:39:12.130Z,3.97
2023-09-04T00:41:40.270Z,4.10
2023-09-04T00:44:08.536Z,6.10
2023-09-04T00:46:36.385Z,4.57
2023-09-04T00:49:04.577Z,4.87
2023-09-04T00:51:34.226Z,5.13
2023-09-04T00:54:02.326Z,4.47
2023-09-04T00:56:30.442Z,5.23
2023-09-04T00:58:58.504Z,5.37
2023-09-04T01:01:26.924Z,4.67
2023-09-04T01:03:54.895Z,5.53
2023-09-04T01:06:22.807Z,4.43
2023-09-04T01:08:52.458Z,4.33
2023-09-04T01:11:32.464Z,3.93
2023-09-04T01:14:01.690Z,4.97
2023-09-04T01:16:30.442Z,3.67
2023-09-04T01:18:58.751Z,6.37
2023-09-04T01:21:28.262Z,5.23
2023-09-04T01:23:56.256Z,6.23
2023-09-04T01:26:29.258Z,6.13
2023-09-04T01:29:05.535Z,4.20
2023-09-04T01:31:37.901Z,6.67
2023-09-04T01:34:09.514Z,4.97
2023-09-04T01:36:41.317Z,4.50
2023-09-04T01:39:10.592Z,5.40
2023-09-04T01:41:39.531Z,6.07
2023-09-04T01:44:08.098Z,4.10
2023-09-04T01:46:36.304Z,4.40
2023-09-04T01:49:05.063Z,5.63
2023-09-04T01:51:33.009Z,6.03
2023-09-04T01:54:02.340Z,6.80
2023-09-04T01:56:30.172Z,5.13
2023-09-04T01:58:58.128Z,4.73
2023-09-04T02:01:26.146Z,5.77
2023-09-04T02:03:58.377Z,5.07
2023-09-04T02:06:28.991Z,6.73
2023-09-04T02:08:56.916Z,6.63
2023-09-04T02:11:26.302Z,8.00
2023-09-04T02:13:54.245Z,6.40
2023-09-04T02:16:23.629Z,6.83
2023-09-04T02:18:52.168Z,6.57
2023-09-04T02:21:20.082Z,7.27
2023-09-04T02:23:48.863Z,6.03
2023-09-04T02:26:16.788Z,7.30
2023-09-04T02:28:46.045Z,7.93
2023-09-04T02:31:13.968Z,5.37
2023-09-04T02:33:41.878Z,6.77
2023-09-04T02:36:09.967Z,6.87
2023-09-04T02:38:37.820Z,7.70
2023-09-04T02:41:05.860Z,6.67
2023-09-04T02:43:33.757Z,7.83
2023-09-04T02:46:03.087Z,7.27
2023-09-04T02:48:31.023Z,7.13
2023-09-04T02:50:59.883Z,6.53
2023-09-04T02:53:29.982Z,8.87
2023-09-04T02:55:57.982Z,6.80
2023-09-04T02:58:26.369Z,7.97
2023-09-04T03:00:54.722Z,9.20
2023-09-04T03:03:24.236Z,8.17
2023-09-04T03:05:52.211Z,9.30
2023-09-04T03:08:20.105Z,6.10
2023-09-04T03:10:47.956Z,7.60
2023-09-04T03:13:15.898Z,8.47
2023-09-04T03:15:43.827Z,8.93
2023-09-04T03:18:11.921Z,8.67
2023-09-04T03:20:41.363Z,8.40
2023-09-04T03:23:09.441Z,7.57
2023-09-04T03:25:38.241Z,8.60
2023-09-04T03:28:06.381Z,8.33
2023-09-04T03:30:35.132Z,8.43
2023-09-04T03:33:03.195Z,10.03
2023-09-04T03:35:31.068Z,9.60
2023-09-04T03:38:00.404Z,8.53
2023-09-04T03:40:30.350Z,7.43
2023-09-04T03:42:59.012Z,9.57
2023-09-04T03:45:26.971Z,9.33
2023-09-04T03:47:54.968Z,8.77
2023-09-04T03:50:22.976Z,10.00
2023-09-04T03:52:50.895Z,9.13
2023-09-04T03:55:20.264Z,8.53
2023-09-04T03:57:52.404Z,7.97
2023-09-04T04:00:21.657Z,8.20
2023-09-04T04:02:50.896Z,7.33
2023-09-04T04:05:20.069Z,7.47
2023-09-04T04:07:48.132Z,9.47
2023-09-04T04:10:16.015Z,8.63
2023-09-04T04:12:45.288Z,8.07
2023-09-04T04:15:13.343Z,8.67
2023-09-04T04:17:42.068Z,8.83
2023-09-04T04:20:12.469Z,8.90
2023-09-04T04:22:41.419Z,8.33
2023-09-04T04:25:10.262Z,8.77
2023-09-04T04:27:39.840Z,9.67
2023-09-04T04:30:11.146Z,8.20
2023-09-04T04:32:39.262Z,7.70
2023-09-04T04:35:08.482Z,8.73
2023-09-04T04:37:36.723Z,9.63
2023-09-04T04:40:05.713Z,9.07
2023-09-04T04:42:33.639Z,8.43
2023-09-04T04:45:02.067Z,7.70
2023-09-04T04:47:31.381Z,9.03
2023-09-04T04:49:59.342Z,7.47
2023-09-04T04:52:27.268Z,9.43
2023-09-04T04:54:55.256Z,10.17
2023-09-04T04:57:23.301Z,8.67
2023-09-04T04:59:51.572Z,7.67
2023-09-04T05:02:19.589Z,7.73
2023-09-04T05:04:50.191Z,9.83
2023-09-04T05:07:18.170Z,8.53
2023-09-04T05:09:46.079Z,9.23
2023-09-04T05:12:13.963Z,8.23
2023-09-04T05:14:41.879Z,10.97
2023-09-04T05:17:09.825Z,7.10
2023-09-04T05:19:37.739Z,9.27
2023-09-04T05:22:10.608Z,8.30
2023-09-04T05:24:40.956Z,7.93
2023-09-04T05:27:08.926Z,10.63
2023-09-04T05:29:36.847Z,10.93
2023-09-04T05:32:05.164Z,9.00
2023-09-04T05:34:34.101Z,9.77
2023-09-04T05:37:02.006Z,7.87
2023-09-04T05:39:31.342Z,8.70
2023-09-04T05:41:59.244Z,7.60
2023-09-04T05:44:27.275Z,9.40
2023-09-04T05:46:55.209Z,9.20
2023-09-04T05:49:23.344Z,9.57
2023-09-04T05:51:51.578Z,8.90
2023-09-04T05:54:19.530Z,10.07
2023-09-04T05:56:48.901Z,10.57
2023-09-04T05:59:16.832Z,9.43
2023-09-04T06:01:44.784Z,8.97
2023-09-04T06:04:13.592Z,10.47
2023-09-04T06:06:41.427Z,8.80
2023-09-04T06:09:09.878Z,11.00
2023-09-04T06:11:37.873Z,9.17
2023-09-04T06:14:07.297Z,7.80
2023-09-04T06:16:37.088Z,9.23
2023-09-04T06:19:05.589Z,12.90
2023-09-04T06:21:33.531Z,9.97
2023-09-04T06:24:01.487Z,9.83
2023-09-04T06:26:29.904Z,10.43
2023-09-04T06:28:58.939Z,13.53
2023-09-04T06:31:28.361Z,9.47
2023-09-04T06:33:56.613Z,9.87
2023-09-04T06:36:24.715Z,10.23
2023-09-04T06:38:52.659Z,12.10
2023-09-04T06:41:22.342Z,11.57
2023-09-04T06:43:50.612Z,12.17
2023-09-04T06:46:18.589Z,12.80
2023-09-04T06:48:48.225Z,10.03
2023-09-04T06:51:16.790Z,12.47
2023-09-04T06:53:45.832Z,10.57
2023-09-04T06:56:13.787Z,10.23
2023-09-04T06:58:41.743Z,12.10
2023-09-04T07:01:09.693Z,10.20
2023-09-04T07:03:37.592Z,10.30
2023-09-04T07:06:07.230Z,11.57
2023-09-04T07:08:35.164Z,12.33
2023-09-04T07:11:03.598Z,14.40
2023-09-04T07:13:31.545Z,11.37
2023-09-04T07:15:59.474Z,12.27
2023-09-04T07:18:27.817Z,10.03
2023-09-04T07:20:55.784Z,11.90
2023-09-04T07:23:27.134Z,12.27
2023-09-04T07:25:57.118Z,12.30
2023-09-04T07:28:25.265Z,13.53
2023-09-04T07:31:10.899Z,13.07
2023-09-04T07:33:38.849Z,10.93
2023-09-04T07:36:07.001Z,11.70
2023-09-04T07:38:36.435Z,19.63
2023-09-04T07:41:05.558Z,12.40
2023-09-04T07:43:34.555Z,10.90
2023-09-04T07:46:02.934Z,14.53
2023-09-04T07:48:31.370Z,12.27
2023-09-04T07:50:59.599Z,13.90
2023-09-04T07:53:28.068Z,12.27
2023-09-04T07:55:57.684Z,12.93
2023-09-04T07:58:25.955Z,12.57
2023-09-04T08:00:54.412Z,14.27
2023-09-04T08:03:22.669Z,14.80
2023-09-04T08:05:51.041Z,14.40
2023-09-04T08:08:18.965Z,12.00
2023-09-04T08:10:50.756Z,12.47
2023-09-04T08:13:20.587Z,11.50
2023-09-04T08:15:48.869Z,11.73
2023-09-04T08:18:17.134Z,12.73
2023-09-04T08:20:44.995Z,12.27
2023-09-04T08:23:12.880Z,14.23
2023-09-04T08:25:40.845Z,11.50
2023-09-04T08:28:09.122Z,14.53
2023-09-04T08:30:38.465Z,12.53
2023-09-04T08:33:06.890Z,11.27
2023-09-04T08:35:34.806Z,12.80
2023-09-04T08:38:05.567Z,10.60
2023-09-04T08:40:34.548Z,8.83
2023-09-04T08:43:03.473Z,11.27
2023-09-04T08:45:32.979Z,10.93
2023-09-04T08:48:04.312Z,9.57
2023-09-04T08:50:32.634Z,10.80
2023-09-04T08:53:00.923Z,10.77
2023-09-04T08:55:29.011Z,10.93
2023-09-04T08:57:57.076Z,8.43
2023-09-04T09:00:25.139Z,8.55
2023-09-04T09:02:55.189Z,8.88
2023-09-04T09:05:24.742Z,9.13
2023-09-04T09:07:54.202Z,7.85
2023-09-04T09:10:23.211Z,9.00
2023-09-04T09:12:51.222Z,8.02
2023-09-04T09:15:19.759Z,7.88
2023-09-04T09:17:54.403Z,7.75
2023-09-04T09:20:34.739Z,9.13
2023-09-04T09:23:03.229Z,9.55
2023-09-04T09:25:31.125Z,9.70
2023-09-04T09:28:02.934Z,7.00
2023-09-04T09:30:35.246Z,9.20
2023-09-04T09:33:05.839Z,8.43
2023-09-04T09:35:35.268Z,8.77
2023-09-04T09:38:03.439Z,7.68
2023-09-04T09:40:31.556Z,8.10
2023-09-04T09:43:01.334Z,7.18
2023-09-04T09:45:33.823Z,8.55
2023-09-04T09:48:06.043Z,5.63
2023-09-04T09:50:37.911Z,5.78
2023-09-04T09:53:06.328Z,6.18
2023-09-04T09:55:35.756Z,7.18
2023-09-04T09:58:05.450Z,6.47
2023-09-04T10:00:34.469Z,6.22
2023-09-04T10:03:03.193Z,5.18
2023-09-04T10:05:32.643Z,5.43
2023-09-04T10:08:04.852Z,4.93
2023-09-04T10:10:38.576Z,4.38
2023-09-04T10:13:15.656Z,3.92
2023-09-04T10:15:47.972Z,4.88
2023-09-04T10:18:21.258Z,5.40
2023-09-04T10:20:49.954Z,4.93
2023-09-04T10:23:25.754Z,6.28
2023-09-04T10:25:57.633Z,6.38
2023-09-04T10:28:43.393Z,7.68
2023-09-04T10:31:13.072Z,6.57
2023-09-04T10:33:41.348Z,8.05
2023-09-04T10:36:10.710Z,5.78
2023-09-04T10:38:42.399Z,6.22
2023-09-04T10:41:15.377Z,5.68
2023-09-04T10:43:44.098Z,6.55
2023-09-04T10:46:13.694Z,6.13
2023-09-04T10:48:46.244Z,8.48
2023-09-04T10:51:28.222Z,6.60
2023-09-04T10:53:57.959Z,6.13
2023-09-04T10:56:26.588Z,6.78
2023-09-04T10:59:00.489Z,6.25
2023-09-04T11:01:33.727Z,5.80
2023-09-04T11:04:03.457Z,6.20
2023-09-04T11:06:33.673Z,5.20
2023-09-04T11:09:04.858Z,7.35
2023-09-04T11:11:33.594Z,5.97
2023-09-04T11:14:03.610Z,5.10
2023-09-04T11:16:39.147Z,4.68
2023-09-04T11:19:08.937Z,5.13
2023-09-04T11:21:38.271Z,5.55
2023-09-04T11:24:08.909Z,5.18
2023-09-04T11:26:37.118Z,8.88
2023-09-04T11:29:07.341Z,5.05
2023-09-04T11:31:36.633Z,4.18
2023-09-04T11:34:05.811Z,4.05
2023-09-04T11:36:39.487Z,4.75
2023-09-04T11:39:11.098Z,4.72
2023-09-04T11:41:39.378Z,3.45
2023-09-04T11:44:08.539Z,3.90
2023-09-04T11:46:37.165Z,5.32
2023-09-04T11:49:05.684Z,2.60
2023-09-04T11:51:34.323Z,3.15
2023-09-04T11:54:05.836Z,5.88
2023-09-04T11:56:35.593Z,2.55
2023-09-04T11:59:06.721Z,2.97
2023-09-04T12:01:35.453Z,4.65
2023-09-04T12:04:05.255Z,4.03
2023-09-04T12:06:37.273Z,3.70
2023-09-04T12:09:06.524Z,3.35
2023-09-04T12:11:35.949Z,4.40
2023-09-04T12:14:11.608Z,2.97
2023-09-04T12:16:40.939Z,3.22
2023-09-04T12:19:08.941Z,2.85
2023-09-04T12:21:36.863Z,3.75
2023-09-04T12:24:13.548Z,3.45
2023-09-04T12:26:43.288Z,4.22
2023-09-04T12:29:11.387Z,3.92
2023-09-04T12:31:39.830Z,3.15
2023-09-04T12:34:07.865Z,3.50
2023-09-04T12:36:36.465Z,3.08
2023-09-04T12:39:05.593Z,4.55
2023-09-04T12:41:33.596Z,2.92
2023-09-04T12:44:04.475Z,2.67
2023-09-04T12:46:32.419Z,2.08
2023-09-04T12:49:00.323Z,3.00
2023-09-04T12:51:28.493Z,2.47
2023-09-04T12:53:56.357Z,3.03
2023-09-04T12:56:24.400Z,3.33
2023-09-04T12:58:52.236Z,2.67
2023-09-04T13:01:21.587Z,3.65
2023-09-04T13:03:49.663Z,1.98
2023-09-04T13:06:17.619Z,3.30
2023-09-04T13:08:45.527Z,3.28
2023-09-04T13:11:13.459Z,2.78
2023-09-04T13:13:42.761Z,4.57
2023-09-04T13:16:11.313Z,8.60
2023-09-04T13:18:40.604Z,4.75
2023-09-04T13:21:08.447Z,3.30
2023-09-04T13:23:37.337Z,4.00
2023-09-04T13:26:05.358Z,4.43
2023-09-04T13:28:33.214Z,4.20
2023-09-04T13:31:02.153Z,3.95
2023-09-04T13:33:30.095Z,5.32
2023-09-04T13:35:59.380Z,4.15
2023-09-04T13:38:27.288Z,4.55
2023-09-04T13:40:55.214Z,4.05
2023-09-04T13:43:23.536Z,3.63
2023-09-04T13:45:51.850Z,3.42
2023-09-04T13:48:19.856Z,5.25
2023-09-04T13:50:47.838Z,3.70
2023-09-04T13:53:17.212Z,4.00
2023-09-04T13:55:45.145Z,5.00
2023-09-04T13:58:13.089Z,5.15
2023-09-04T14:00:43.057Z,4.13
2023-09-04T14:03:12.756Z,4.97
2023-09-04T14:05:40.855Z,4.85
2023-09-04T14:08:10.653Z,3.92
2023-09-04T14:10:40.360Z,4.13
2023-09-04T14:13:08.491Z,3.90
2023-09-04T14:15:37.798Z,3.10
2023-09-04T14:18:07.868Z,3.72
2023-09-04T14:20:35.825Z,2.42
2023-09-04T14:23:03.772Z,3.45
2023-09-04T14:25:31.639Z,3.15
2023-09-04T14:28:00.913Z,2.97
2023-09-04T14:30:28.882Z,2.78
2023-09-04T14:32:58.944Z,4.88
2023-09-04T14:35:26.862Z,3.47
2023-09-04T14:37:57.120Z,2.92
2023-09-04T14:40:29.370Z,2.90
2023-09-04T14:42:57.241Z,4.43
2023-09-04T14:45:28.013Z,4.25
2023-09-04T14:47:57.700Z,3.30
2023-09-04T14:50:26.161Z,4.03
2023-09-04T14:52:55.405Z,4.70
2023-09-04T14:55:24.353Z,3.40
2023-09-04T14:57:53.237Z,4.20
2023-09-04T15:00:22.094Z,3.35
2023-09-04T15:02:53.578Z,3.30
2023-09-04T15:05:21.658Z,4.90
2023-09-04T15:07:49.646Z,3.30
2023-09-04T15:10:17.768Z,3.90
2023-09-04T15:12:46.771Z,4.25
2023-09-04T15:15:14.689Z,2.67
2023-09-04T15:17:44.776Z,3.88
2023-09-04T15:20:15.177Z,4.07
2023-09-04T15:22:45.419Z,3.85
2023-09-04T15:25:22.420Z,4.07
2023-09-04T15:27:50.424Z,3.63
2023-09-04T15:30:18.479Z,4.53
2023-09-04T15:32:46.520Z,3.70
2023-09-04T15:35:16.089Z,4.78
2023-09-04T15:37:44.000Z,3.97
2023-09-04T15:40:12.328Z,4.47
2023-09-04T15:42:40.206Z,3.33
2023-09-04T15:45:12.322Z,3.15
2023-09-04T15:47:43.337Z,3.80
2023-09-04T15:50:11.888Z,4.38
2023-09-04T15:52:41.123Z,6.75
2023-09-04T15:55:09.958Z,3.33
2023-09-04T15:57:37.825Z,6.20
2023-09-04T16:00:07.644Z,6.43
2023-09-04T16:02:35.804Z,3.30
2023-09-04T16:05:03.708Z,7.07
2023-09-04T16:07:31.542Z,5.50
2023-09-04T16:10:01.025Z,4.90
2023-09-04T16:12:28.956Z,8.70
2023-09-04T16:14:56.899Z,7.07
2023-09-04T16:17:24.790Z,6.20
2023-09-04T16:19:52.775Z,4.00
2023-09-04T16:22:21.453Z,14.65
2023-09-04T16:24:49.449Z,7.95
2023-09-04T16:27:18.873Z,3.90
2023-09-04T16:29:46.706Z,4.10
2023-09-04T16:32:14.592Z,3.38
2023-09-04T16:34:42.562Z,4.38
2023-09-04T16:37:10.902Z,4.85
2023-09-04T16:39:38.852Z,3.25
2023-09-04T16:42:07.013Z,3.55
2023-09-04T16:44:36.338Z,2.60
2023-09-04T16:47:04.316Z,3.28
2023-09-04T16:49:44.945Z,2.22
2023-09-04T16:52:13.016Z,5.13
2023-09-04T16:54:40.843Z,4.93
2023-09-04T16:57:08.719Z,3.35
2023-09-04T16:59:38.230Z,3.53
2023-09-04T17:02:06.320Z,4.40
2023-09-04T17:04:34.176Z,3.33
2023-09-04T17:07:02.034Z,3.40
2023-09-04T17:09:30.817Z,6.95
2023-09-04T17:11:58.782Z,3.85
2023-09-04T17:14:26.747Z,3.00
2023-09-04T17:16:55.990Z,2.85
2023-09-04T17:19:23.843Z,7.13
2023-09-04T17:21:51.700Z,3.60
2023-09-04T17:24:19.591Z,3.40
2023-09-04T17:26:47.539Z,2.50
2023-09-04T17:29:15.710Z,3.67
2023-09-04T17:31:43.618Z,4.57
2023-09-04T17:34:13.257Z,3.75
2023-09-04T17:36:41.071Z,3.33
2023-09-04T17:39:09.120Z,3.42
2023-09-04T17:41:37.454Z,3.78
2023-09-04T17:44:05.810Z,3.58
2023-09-04T17:46:33.610Z,4.70
2023-09-04T17:49:01.543Z,4.80
2023-09-04T17:51:30.790Z,3.72
2023-09-04T17:53:58.825Z,3.70
2023-09-04T17:56:26.679Z,3.00
2023-09-04T17:58:54.992Z,3.40
2023-09-04T18:01:23.041Z,4.10
2023-09-04T18:03:51.053Z,4.07
2023-09-04T18:06:19.762Z,4.53
2023-09-04T18:08:49.018Z,3.83
2023-09-04T18:11:17.213Z,4.10
2023-09-04T18:13:45.140Z,4.53
2023-09-04T18:16:13.414Z,3.78
2023-09-04T18:18:41.924Z,7.28
2023-09-04T18:21:14.495Z,2.92
2023-09-04T18:23:43.264Z,4.28
2023-09-04T18:26:13.297Z,3.97
2023-09-04T18:28:43.083Z,4.57
2023-09-04T18:31:15.073Z,5.40
2023-09-04T18:33:43.097Z,4.55
2023-09-04T18:36:12.746Z,3.17
2023-09-04T18:38:43.263Z,5.28
2023-09-04T18:41:13.915Z,4.45
2023-09-04T18:43:42.143Z,3.92
2023-09-04T18:46:11.039Z,4.55
2023-09-04T18:48:39.055Z,3.90
2023-09-04T18:51:06.939Z,4.65
2023-09-04T18:53:35.938Z,3.60
2023-09-04T18:56:03.850Z,3.78
2023-09-04T18:58:33.644Z,5.00
2023-09-04T19:01:02.964Z,5.10
2023-09-04T19:03:32.011Z,4.03
2023-09-04T19:06:00.140Z,5.75
2023-09-04T19:08:28.522Z,4.50
2023-09-04T19:10:56.874Z,4.35
2023-09-04T19:13:24.702Z,4.63
2023-09-04T19:15:54.785Z,5.50
2023-09-04T19:18:23.138Z,4.40
2023-09-04T19:20:51.819Z,4.95
2023-09-04T19:23:20.037Z,5.80
2023-09-04T19:25:48.044Z,5.22
2023-09-04T19:28:16.003Z,5.35
2023-09-04T19:30:44.008Z,5.63
2023-09-04T19:33:14.163Z,5.05
2023-09-04T19:35:42.174Z,7.20
2023-09-04T19:38:10.177Z,5.75
2023-09-04T19:40:38.299Z,7.28
2023-09-04T19:43:06.280Z,4.78
2023-09-04T19:45:34.259Z,6.18
2023-09-04T19:48:02.348Z,5.50
2023-09-04T19:50:31.640Z,6.00
2023-09-04T19:52:59.611Z,7.05
2023-09-04T19:55:27.775Z,6.07
2023-09-04T19:57:55.848Z,6.38
2023-09-04T20:00:24.199Z,5.38
2023-09-04T20:02:52.542Z,6.15
2023-09-04T20:05:23.861Z,8.10
2023-09-04T20:07:53.312Z,6.00
2023-09-04T20:10:21.495Z,7.20
2023-09-04T20:12:49.366Z,6.68
2023-09-04T20:15:17.346Z,6.22
2023-09-04T20:17:45.330Z,6.93
2023-09-04T20:20:14.896Z,6.40
2023-09-04T20:22:42.801Z,7.07
2023-09-04T20:25:12.503Z,9.38
2023-09-04T20:27:40.477Z,6.72
2023-09-04T20:30:09.579Z,8.00
2023-09-04T20:32:37.642Z,7.82
2023-09-04T20:35:06.697Z,6.57
2023-09-04T20:37:36.584Z,6.00
2023-09-04T20:40:04.987Z,5.78
2023-09-04T20:42:34.318Z,7.68
2023-09-04T20:45:02.167Z,6.90
2023-09-04T20:47:31.447Z,8.10
2023-09-04T20:49:59.418Z,6.70
2023-09-04T20:52:27.389Z,8.27
2023-09-04T20:54:55.237Z,10.45
2023-09-04T20:57:23.058Z,5.32
2023-09-04T20:59:55.857Z,6.32
2023-09-04T21:02:23.780Z,6.70
2023-09-04T21:04:51.703Z,6.22
2023-09-04T21:07:18.671Z,12.80
2023-09-04T21:09:45.382Z,7.30
2023-09-04T21:12:30.866Z,6.50
2023-09-04T21:15:17.868Z,7.97
2023-09-04T21:18:03.050Z,6.13
2023-09-04T21:20:48.238Z,6.43
2023-09-04T21:23:33.636Z,7.63
2023-09-04T21:26:19.036Z,6.00
2023-09-04T21:29:04.708Z,6.77
2023-09-04T21:31:54.514Z,5.88
2023-09-04T21:34:40.071Z,6.67
2023-09-04T21:37:25.286Z,5.95
2023-09-04T21:40:10.672Z,7.13
2023-09-04T21:42:55.997Z,9.32
2023-09-04T21:45:42.009Z,7.33
2023-09-04T21:48:29.060Z,5.95
2023-09-04T21:51:14.303Z,6.38
2023-09-04T21:53:59.507Z,6.05
2023-09-04T21:56:45.179Z,7.75
2023-09-04T21:59:30.389Z,6.20
2023-09-04T22:02:15.691Z,6.47
2023-09-04T22:05:02.602Z,7.13
2023-09-04T22:07:47.954Z,7.17
2023-09-04T22:10:33.173Z,5.70
2023-09-04T22:13:18.774Z,6.20
2023-09-04T22:16:04.590Z,7.70
2023-09-04T22:18:49.918Z,7.37
2023-09-04T22:21:36.453Z,7.00
2023-09-04T22:24:22.251Z,6.53
2023-09-04T22:27:07.883Z,5.83
2023-09-04T22:29:53.797Z,6.03
2023-09-04T22:32:39.348Z,6.13
2023-09-04T22:35:25.738Z,5.27
2023-09-04T22:38:12.334Z,7.43
2023-09-04T22:40:57.752Z,7.17
2023-09-04T22:43:43.252Z,8.63
2023-09-04T22:46:28.575Z,6.87
2023-09-04T22:49:13.708Z,6.87
2023-09-04T22:51:59.400Z,7.50
2023-09-04T22:54:45.821Z,7.30
2023-09-04T22:57:31.448Z,6.37
2023-09-04T23:00:16.813Z,5.97
2023-09-04T23:03:02.293Z,5.43
2023-09-04T23:05:47.573Z,6.63
2023-09-04T23:08:32.701Z,5.73
2023-09-04T23:11:19.743Z,7.50
2023-09-04T23:14:04.904Z,7.73
2023-09-04T23:16:50.464Z,6.83
2023-09-04T23:19:37.148Z,7.03
2023-09-04T23:22:07.034Z,6.37
2023-09-04T23:24:35.445Z,6.77
2023-09-04T23:27:06.386Z,7.07
2023-09-04T23:29:34.318Z,7.77
2023-09-04T23:32:10.902Z,6.57
2023-09-04T23:34:39.439Z,9.70
2023-09-04T23:37:10.327Z,6.43
2023-09-04T23:39:56.695Z,6.73
2023-09-04T23:42:47.928Z,10.03
2023-09-04T23:45:18.428Z,7.17
2023-09-04T23:47:48.745Z,8.10
2023-09-04T23:50:18.843Z,6.80
2023-09-04T23:52:50.185Z,7.20
2023-09-04T23:55:18.518Z,8.87
2023-09-04T23:57:49.348Z,7.60
